sensor_id;sensor_type;location;lat;lon;timestamp;temperature;humidity
56123;DHT22;42426;46.104;19.656;2022-08-23T00:01:59;486.80;2380.80
56123;DHT22;42426;46.104;19.656;2022-08-23T00:04:32;486.60;2380.80
56123;DHT22;42426;46.104;19.656;2022-08-23T00:06:59;486.50;2380.80
56123;DHT22;42426;46.104;19.656;2022-08-23T00:09:26;486.40;2380.80
56123;DHT22;42426;46.104;19.656;2022-08-23T00:12:17;461.60;2380.80
56123;DHT22;42426;46.104;19.656;2022-08-23T00:14:49;461.60;2380.80
56123;DHT22;42426;46.104;19.656;2022-08-23T00:17:15;461.60;2380.80
56123;DHT22;42426;46.104;19.656;2022-08-23T00:19:41;461.50;2380.80
56123;DHT22;42426;46.104;19.656;2022-08-23T00:22:08;461.50;2380.80
56123;DHT22;42426;46.104;19.656;2022-08-23T00:24:35;461.50;2380.80
56123;DHT22;42426;46.104;19.656;2022-08-23T00:29:37;461.50;2380.80
56123;DHT22;42426;46.104;19.656;2022-08-23T00:32:06;461.40;2380.80
56123;DHT22;42426;46.104;19.656;2022-08-23T00:34:32;461.30;2380.80
56123;DHT22;42426;46.104;19.656;2022-08-23T00:36:58;461.30;2380.80
56123;DHT22;42426;46.104;19.656;2022-08-23T00:39:25;461.30;2380.80
56123;DHT22;42426;46.104;19.656;2022-08-23T00:41:51;461.30;2380.80
56123;DHT22;42426;46.104;19.656;2022-08-23T00:44:29;461.30;2380.80
56123;DHT22;42426;46.104;19.656;2022-08-23T00:47:14;461.40;2380.80
56123;DHT22;42426;46.104;19.656;2022-08-23T00:52:41;461.30;2380.80
56123;DHT22;42426;46.104;19.656;2022-08-23T00:55:10;461.30;2380.80
56123;DHT22;42426;46.104;19.656;2022-08-23T00:57:36;461.30;2380.80
56123;DHT22;42426;46.104;19.656;2022-08-23T01:00:05;461.30;2380.80
56123;DHT22;42426;46.104;19.656;2022-08-23T01:02:32;461.30;2380.80
56123;DHT22;42426;46.104;19.656;2022-08-23T01:04:58;461.30;2380.80
56123;DHT22;42426;46.104;19.656;2022-08-23T01:07:37;461.20;2380.80
56123;DHT22;42426;46.104;19.656;2022-08-23T01:10:42;461.30;2380.80
56123;DHT22;42426;46.104;19.656;2022-08-23T01:13:26;461.30;2380.80
56123;DHT22;42426;46.104;19.656;2022-08-23T01:16:18;461.30;2380.80
56123;DHT22;42426;46.104;19.656;2022-08-23T01:18:46;461.30;2380.80
56123;DHT22;42426;46.104;19.656;2022-08-23T01:21:26;461.30;2380.80
56123;DHT22;42426;46.104;19.656;2022-08-23T01:23:57;461.30;2380.80
56123;DHT22;42426;46.104;19.656;2022-08-23T01:26:25;461.30;2380.80
56123;DHT22;42426;46.104;19.656;2022-08-23T01:28:53;461.20;2380.80
56123;DHT22;42426;46.104;19.656;2022-08-23T01:31:20;461.20;2380.80
56123;DHT22;42426;46.104;19.656;2022-08-23T01:33:50;461.20;2380.80
56123;DHT22;42426;46.104;19.656;2022-08-23T01:36:17;461.20;2380.80
56123;DHT22;42426;46.104;19.656;2022-08-23T01:38:44;461.30;2380.80
56123;DHT22;42426;46.104;19.656;2022-08-23T01:41:10;461.20;2380.80
56123;DHT22;42426;46.104;19.656;2022-08-23T01:43:36;461.20;2380.80
56123;DHT22;42426;46.104;19.656;2022-08-23T01:46:14;461.20;2380.80
56123;DHT22;42426;46.104;19.656;2022-08-23T01:48:43;461.20;2380.80
56123;DHT22;42426;46.104;19.656;2022-08-23T01:51:11;461.20;2380.80
56123;DHT22;42426;46.104;19.656;2022-08-23T01:53:37;461.50;2380.80
56123;DHT22;42426;46.104;19.656;2022-08-23T01:56:04;461.40;2380.80
56123;DHT22;42426;46.104;19.656;2022-08-23T01:58:34;461.30;2380.80
56123;DHT22;42426;46.104;19.656;2022-08-23T02:01:01;461.70;2380.80
56123;DHT22;42426;46.104;19.656;2022-08-23T02:03:29;487.10;2380.80
56123;DHT22;42426;46.104;19.656;2022-08-23T02:05:56;487.00;2380.80
56123;DHT22;42426;46.104;19.656;2022-08-23T02:08:22;486.70;2380.80
56123;DHT22;42426;46.104;19.656;2022-08-23T02:11:11;486.70;2380.80
56123;DHT22;42426;46.104;19.656;2022-08-23T02:13:39;486.50;2380.80
56123;DHT22;42426;46.104;19.656;2022-08-23T02:16:05;486.50;2380.80
56123;DHT22;42426;46.104;19.656;2022-08-23T02:18:31;486.40;2380.80
56123;DHT22;42426;46.104;19.656;2022-08-23T02:20:57;461.60;2380.80
56123;DHT22;42426;46.104;19.656;2022-08-23T02:23:23;486.40;2380.80
56123;DHT22;42426;46.104;19.656;2022-08-23T02:25:50;461.50;2380.80
56123;DHT22;42426;46.104;19.656;2022-08-23T02:28:17;461.40;2380.80
56123;DHT22;42426;46.104;19.656;2022-08-23T02:30:44;461.30;2380.80
56123;DHT22;42426;46.104;19.656;2022-08-23T02:33:10;461.30;2380.80
56123;DHT22;42426;46.104;19.656;2022-08-23T02:35:37;461.20;2380.80
56123;DHT22;42426;46.104;19.656;2022-08-23T02:38:09;461.30;2380.80
56123;DHT22;42426;46.104;19.656;2022-08-23T02:40:36;461.70;2380.80
56123;DHT22;42426;46.104;19.656;2022-08-23T02:43:04;461.60;2380.80
56123;DHT22;42426;46.104;19.656;2022-08-23T02:45:31;461.50;2380.80
56123;DHT22;42426;46.104;19.656;2022-08-23T02:47:57;461.50;2380.80
56123;DHT22;42426;46.104;19.656;2022-08-23T02:50:23;461.50;2380.80
56123;DHT22;42426;46.104;19.656;2022-08-23T02:52:49;461.50;2380.80
56123;DHT22;42426;46.104;19.656;2022-08-23T02:55:15;461.60;2380.80
56123;DHT22;42426;46.104;19.656;2022-08-23T02:57:41;461.50;2380.80
56123;DHT22;42426;46.104;19.656;2022-08-23T03:00:09;461.30;2380.80
56123;DHT22;42426;46.104;19.656;2022-08-23T03:02:36;461.40;2380.80
56123;DHT22;42426;46.104;19.656;2022-08-23T03:05:04;461.70;2380.80
56123;DHT22;42426;46.104;19.656;2022-08-23T03:07:30;486.70;2380.80
56123;DHT22;42426;46.104;19.656;2022-08-23T03:09:56;487.00;2380.80
56123;DHT22;42426;46.104;19.656;2022-08-23T03:12:22;486.90;2380.80
56123;DHT22;42426;46.104;19.656;2022-08-23T03:14:48;512.20;2380.80
56123;DHT22;42426;46.104;19.656;2022-08-23T03:17:17;512.30;2380.80
56123;DHT22;42426;46.104;19.656;2022-08-23T03:19:43;512.00;2380.80
56123;DHT22;42426;46.104;19.656;2022-08-23T03:22:09;512.00;2380.80
56123;DHT22;42426;46.104;19.656;2022-08-23T03:24:35;512.10;2380.80
56123;DHT22;42426;46.104;19.656;2022-08-23T03:27:01;512.40;2380.80
56123;DHT22;42426;46.104;19.656;2022-08-23T03:29:27;512.80;2355.20
56123;DHT22;42426;46.104;19.656;2022-08-23T03:31:53;512.70;2380.80
56123;DHT22;42426;46.104;19.656;2022-08-23T03:34:19;512.80;2355.20
56123;DHT22;42426;46.104;19.656;2022-08-23T03:36:45;512.90;2329.60
56123;DHT22;42426;46.104;19.656;2022-08-23T03:39:11;537.60;2329.60
56123;DHT22;42426;46.104;19.656;2022-08-23T03:41:37;512.80;2355.20
56123;DHT22;42426;46.104;19.656;2022-08-23T03:44:03;512.70;2355.20
56123;DHT22;42426;46.104;19.656;2022-08-23T03:46:29;512.30;2380.80
56123;DHT22;42426;46.104;19.656;2022-08-23T03:48:58;512.20;2380.80
56123;DHT22;42426;46.104;19.656;2022-08-23T03:51:26;512.30;2380.80
56123;DHT22;42426;46.104;19.656;2022-08-23T03:53:52;487.10;2380.80
56123;DHT22;42426;46.104;19.656;2022-08-23T03:56:31;512.20;2380.80
56123;DHT22;42426;46.104;19.656;2022-08-23T03:59:00;512.20;2380.80
56123;DHT22;42426;46.104;19.656;2022-08-23T04:01:26;487.20;2380.80
56123;DHT22;42426;46.104;19.656;2022-08-23T04:03:52;487.00;2380.80
56123;DHT22;42426;46.104;19.656;2022-08-23T04:06:18;512.00;2380.80
56123;DHT22;42426;46.104;19.656;2022-08-23T04:08:45;487.30;2380.80
56123;DHT22;42426;46.104;19.656;2022-08-23T04:11:11;486.90;2380.80
56123;DHT22;42426;46.104;19.656;2022-08-23T04:13:39;487.10;2380.80
56123;DHT22;42426;46.104;19.656;2022-08-23T04:16:05;486.80;2380.80
56123;DHT22;42426;46.104;19.656;2022-08-23T04:18:32;487.20;2380.80
56123;DHT22;42426;46.104;19.656;2022-08-23T04:21:01;486.80;2380.80
56123;DHT22;42426;46.104;19.656;2022-08-23T04:23:28;486.60;2380.80
56123;DHT22;42426;46.104;19.656;2022-08-23T04:25:55;486.60;2380.80
56123;DHT22;42426;46.104;19.656;2022-08-23T04:28:21;461.70;2380.80
56123;DHT22;42426;46.104;19.656;2022-08-23T04:30:47;461.60;2380.80
56123;DHT22;42426;46.104;19.656;2022-08-23T04:33:14;461.60;2380.80
56123;DHT22;42426;46.104;19.656;2022-08-23T04:35:40;461.50;2380.80
56123;DHT22;42426;46.104;19.656;2022-08-23T04:38:06;461.50;2380.80
56123;DHT22;42426;46.104;19.656;2022-08-23T04:40:32;461.50;2380.80
56123;DHT22;42426;46.104;19.656;2022-08-23T04:43:16;486.40;2380.80
56123;DHT22;42426;46.104;19.656;2022-08-23T04:45:41;487.10;2380.80
56123;DHT22;42426;46.104;19.656;2022-08-23T04:48:07;487.20;2380.80
56123;DHT22;42426;46.104;19.656;2022-08-23T04:50:34;512.30;2380.80
56123;DHT22;42426;46.104;19.656;2022-08-23T04:53:01;512.70;2380.80
56123;DHT22;42426;46.104;19.656;2022-08-23T04:55:27;537.90;2329.60
56123;DHT22;42426;46.104;19.656;2022-08-23T04:57:53;512.70;2380.80
56123;DHT22;42426;46.104;19.656;2022-08-23T05:00:19;512.80;2380.80
56123;DHT22;42426;46.104;19.656;2022-08-23T05:02:45;512.60;2380.80
56123;DHT22;42426;46.104;19.656;2022-08-23T05:05:11;512.30;2380.80
56123;DHT22;42426;46.104;19.656;2022-08-23T05:07:38;512.20;2380.80
56123;DHT22;42426;46.104;19.656;2022-08-23T05:10:07;512.10;2380.80
56123;DHT22;42426;46.104;19.656;2022-08-23T05:12:34;487.20;2380.80
56123;DHT22;42426;46.104;19.656;2022-08-23T05:15:00;487.30;2380.80
56123;DHT22;42426;46.104;19.656;2022-08-23T05:17:26;487.00;2380.80
56123;DHT22;42426;46.104;19.656;2022-08-23T05:19:52;512.20;2380.80
56123;DHT22;42426;46.104;19.656;2022-08-23T05:22:18;512.30;2380.80
56123;DHT22;42426;46.104;19.656;2022-08-23T05:24:43;512.50;2380.80
56123;DHT22;42426;46.104;19.656;2022-08-23T05:27:09;512.50;2380.80
56123;DHT22;42426;46.104;19.656;2022-08-23T05:29:35;512.30;2380.80
56123;DHT22;42426;46.104;19.656;2022-08-23T05:32:01;512.60;2380.80
56123;DHT22;42426;46.104;19.656;2022-08-23T05:34:27;512.30;2380.80
56123;DHT22;42426;46.104;19.656;2022-08-23T05:36:53;512.30;2380.80
56123;DHT22;42426;46.104;19.656;2022-08-23T05:39:20;512.20;2380.80
56123;DHT22;42426;46.104;19.656;2022-08-23T05:41:45;487.30;2380.80
56123;DHT22;42426;46.104;19.656;2022-08-23T05:44:11;487.20;2380.80
56123;DHT22;42426;46.104;19.656;2022-08-23T05:46:40;512.20;2380.80
56123;DHT22;42426;46.104;19.656;2022-08-23T05:49:06;487.30;2380.80
56123;DHT22;42426;46.104;19.656;2022-08-23T05:51:33;487.20;2380.80
56123;DHT22;42426;46.104;19.656;2022-08-23T05:54:03;512.00;2380.80
56123;DHT22;42426;46.104;19.656;2022-08-23T05:56:34;512.60;2380.80
56123;DHT22;42426;46.104;19.656;2022-08-23T05:59:04;512.70;2380.80
56123;DHT22;42426;46.104;19.656;2022-08-23T06:01:31;512.50;2380.80
56123;DHT22;42426;46.104;19.656;2022-08-23T06:03:59;537.60;2406.40
56123;DHT22;42426;46.104;19.656;2022-08-23T06:06:25;512.60;2380.80
56123;DHT22;42426;46.104;19.656;2022-08-23T06:08:51;512.40;2380.80
56123;DHT22;42426;46.104;19.656;2022-08-23T06:11:20;512.30;2380.80
56123;DHT22;42426;46.104;19.656;2022-08-23T06:13:49;512.80;2355.20
56123;DHT22;42426;46.104;19.656;2022-08-23T06:16:19;537.70;2406.40
56123;DHT22;42426;46.104;19.656;2022-08-23T06:18:46;538.10;2304.00
56123;DHT22;42426;46.104;19.656;2022-08-23T06:21:13;537.80;2380.80
56123;DHT22;42426;46.104;19.656;2022-08-23T06:23:40;537.60;2406.40
56123;DHT22;42426;46.104;19.656;2022-08-23T06:26:14;537.60;2406.40
56123;DHT22;42426;46.104;19.656;2022-08-23T06:28:41;512.90;2380.80
56123;DHT22;42426;46.104;19.656;2022-08-23T06:31:08;512.90;2380.80
56123;DHT22;42426;46.104;19.656;2022-08-23T06:33:34;512.90;2380.80
56123;DHT22;42426;46.104;19.656;2022-08-23T06:36:07;512.90;2380.80
56123;DHT22;42426;46.104;19.656;2022-08-23T06:38:34;512.90;2380.80
56123;DHT22;42426;46.104;19.656;2022-08-23T06:41:05;537.70;2406.40
56123;DHT22;42426;46.104;19.656;2022-08-23T06:48:42;538.10;2355.20
56123;DHT22;42426;46.104;19.656;2022-08-23T06:51:14;537.90;2380.80
56123;DHT22;42426;46.104;19.656;2022-08-23T06:53:40;537.70;2406.40
56123;DHT22;42426;46.104;19.656;2022-08-23T06:56:06;537.60;2406.40
56123;DHT22;42426;46.104;19.656;2022-08-23T06:58:32;537.90;2355.20
56123;DHT22;42426;46.104;19.656;2022-08-23T07:01:29;537.70;2406.40
56123;DHT22;42426;46.104;19.656;2022-08-23T07:03:58;537.70;2380.80
56123;DHT22;42426;46.104;19.656;2022-08-23T07:06:25;537.60;2380.80
56123;DHT22;42426;46.104;19.656;2022-08-23T07:08:52;538.10;2252.80
56123;DHT22;42426;46.104;19.656;2022-08-23T07:11:19;537.80;2380.80
56123;DHT22;42426;46.104;19.656;2022-08-23T07:13:45;537.90;2304.00
56123;DHT22;42426;46.104;19.656;2022-08-23T07:16:11;538.30;2304.00
56123;DHT22;42426;46.104;19.656;2022-08-23T07:18:37;537.80;2380.80
56123;DHT22;42426;46.104;19.656;2022-08-23T07:21:04;537.80;2329.60
56123;DHT22;42426;46.104;19.656;2022-08-23T07:23:32;538.10;2304.00
56123;DHT22;42426;46.104;19.656;2022-08-23T07:26:06;537.70;2380.80
56123;DHT22;42426;46.104;19.656;2022-08-23T07:28:33;512.90;2380.80
56123;DHT22;42426;46.104;19.656;2022-08-23T07:31:11;512.90;2355.20
56123;DHT22;42426;46.104;19.656;2022-08-23T07:33:38;537.90;2278.40
56123;DHT22;42426;46.104;19.656;2022-08-23T07:36:05;537.70;2329.60
56123;DHT22;42426;46.104;19.656;2022-08-23T07:38:31;538.10;2304.00
56123;DHT22;42426;46.104;19.656;2022-08-23T07:40:57;538.40;2278.40
56123;DHT22;42426;46.104;19.656;2022-08-23T07:43:23;538.30;2329.60
56123;DHT22;42426;46.104;19.656;2022-08-23T07:45:49;538.30;2329.60
56123;DHT22;42426;46.104;19.656;2022-08-23T07:48:15;538.10;2355.20
56123;DHT22;42426;46.104;19.656;2022-08-23T08:02:52;537.90;2406.40
56123;DHT22;42426;46.104;19.656;2022-08-23T08:05:18;537.80;2406.40
56123;DHT22;42426;46.104;19.656;2022-08-23T08:07:44;537.70;2406.40
56123;DHT22;42426;46.104;19.656;2022-08-23T08:10:10;537.70;2406.40
56123;DHT22;42426;46.104;19.656;2022-08-23T08:12:36;537.90;2329.60
56123;DHT22;42426;46.104;19.656;2022-08-23T08:15:02;538.20;2355.20
56123;DHT22;42426;46.104;19.656;2022-08-23T08:17:29;538.00;2380.80
56123;DHT22;42426;46.104;19.656;2022-08-23T08:19:55;537.90;2406.40
56123;DHT22;42426;46.104;19.656;2022-08-23T08:22:21;537.90;2406.40
56123;DHT22;42426;46.104;19.656;2022-08-23T08:24:47;537.90;2406.40
56123;DHT22;42426;46.104;19.656;2022-08-23T08:27:12;537.80;2406.40
56123;DHT22;42426;46.104;19.656;2022-08-23T08:29:38;537.80;2406.40
56123;DHT22;42426;46.104;19.656;2022-08-23T08:32:05;537.80;2406.40
56123;DHT22;42426;46.104;19.656;2022-08-23T08:34:31;537.90;2406.40
56123;DHT22;42426;46.104;19.656;2022-08-23T08:36:57;537.90;2406.40
56123;DHT22;42426;46.104;19.656;2022-08-23T08:39:26;537.90;2406.40
56123;DHT22;42426;46.104;19.656;2022-08-23T08:42:08;537.90;2406.40
56123;DHT22;42426;46.104;19.656;2022-08-23T08:44:52;537.80;2406.40
56123;DHT22;42426;46.104;19.656;2022-08-23T08:48:04;537.80;2406.40
56123;DHT22;42426;46.104;19.656;2022-08-23T08:50:25;537.90;2406.40
56123;DHT22;42426;46.104;19.656;2022-08-23T08:53:01;537.90;2406.40
56123;DHT22;42426;46.104;19.656;2022-08-23T08:55:33;538.00;2406.40
56123;DHT22;42426;46.104;19.656;2022-08-23T08:58:03;538.00;2406.40
56123;DHT22;42426;46.104;19.656;2022-08-23T09:00:35;538.00;2406.40
56123;DHT22;42426;46.104;19.656;2022-08-23T09:03:08;538.10;2406.40
56123;DHT22;42426;46.104;19.656;2022-08-23T09:05:37;538.30;2406.40
56123;DHT22;42426;46.104;19.656;2022-08-23T09:08:24;538.40;2406.40
56123;DHT22;42426;46.104;19.656;2022-08-23T09:16:24;563.20;2329.60
56123;DHT22;42426;46.104;19.656;2022-08-23T09:18:53;563.20;2355.20
56123;DHT22;42426;46.104;19.656;2022-08-23T09:21:20;563.30;2329.60
56123;DHT22;42426;46.104;19.656;2022-08-23T09:23:48;563.20;2329.60
56123;DHT22;42426;46.104;19.656;2022-08-23T09:26:26;563.30;2380.80
56123;DHT22;42426;46.104;19.656;2022-08-23T09:28:59;563.30;2380.80
56123;DHT22;42426;46.104;19.656;2022-08-23T09:31:42;563.40;2380.80
56123;DHT22;42426;46.104;19.656;2022-08-23T09:34:14;563.50;2304.00
56123;DHT22;42426;46.104;19.656;2022-08-23T09:36:40;563.60;2355.20
56123;DHT22;42426;46.104;19.656;2022-08-23T09:41:48;563.80;2355.20
56123;DHT22;42426;46.104;19.656;2022-08-23T09:44:38;563.70;2329.60
56123;DHT22;42426;46.104;19.656;2022-08-23T09:47:15;563.80;2355.20
56123;DHT22;42426;46.104;19.656;2022-08-23T09:49:44;563.80;2304.00
56123;DHT22;42426;46.104;19.656;2022-08-23T09:52:30;563.70;2278.40
56123;DHT22;42426;46.104;19.656;2022-08-23T09:55:09;564.00;2304.00
56123;DHT22;42426;46.104;19.656;2022-08-23T09:57:36;564.00;2252.80
56123;DHT22;42426;46.104;19.656;2022-08-23T10:02:40;564.00;2227.20
56123;DHT22;42426;46.104;19.656;2022-08-23T10:05:18;564.00;2278.40
56123;DHT22;42426;46.104;19.656;2022-08-23T10:08:01;564.10;2201.60
56123;DHT22;42426;46.104;19.656;2022-08-23T10:10:48;564.00;2227.20
56123;DHT22;42426;46.104;19.656;2022-08-23T10:13:16;588.80;2201.60
56123;DHT22;42426;46.104;19.656;2022-08-23T10:20:51;588.90;2150.40
56123;DHT22;42426;46.104;19.656;2022-08-23T10:25:57;588.90;2124.80
56123;DHT22;42426;46.104;19.656;2022-08-23T10:28:42;588.80;2150.40
56123;DHT22;42426;46.104;19.656;2022-08-23T10:31:32;588.80;2124.80
56123;DHT22;42426;46.104;19.656;2022-08-23T10:34:26;588.80;2150.40
56123;DHT22;42426;46.104;19.656;2022-08-23T10:40:04;588.80;2124.80
56123;DHT22;42426;46.104;19.656;2022-08-23T10:42:49;588.80;2124.80
56123;DHT22;42426;46.104;19.656;2022-08-23T10:45:32;588.80;2150.40
56123;DHT22;42426;46.104;19.656;2022-08-23T10:50:48;588.90;2176.00
56123;DHT22;42426;46.104;19.656;2022-08-23T10:53:17;589.00;2124.80
56123;DHT22;42426;46.104;19.656;2022-08-23T10:55:56;589.00;2099.20
56123;DHT22;42426;46.104;19.656;2022-08-23T11:01:05;589.10;2201.60
56123;DHT22;42426;46.104;19.656;2022-08-23T11:04:15;589.20;2124.80
56123;DHT22;42426;46.104;19.656;2022-08-23T11:06:30;589.20;2099.20
56123;DHT22;42426;46.104;19.656;2022-08-23T11:09:09;589.60;2099.20
56123;DHT22;42426;46.104;19.656;2022-08-23T11:14:24;589.30;2048.00
56123;DHT22;42426;46.104;19.656;2022-08-23T11:17:00;589.30;2099.20
56123;DHT22;42426;46.104;19.656;2022-08-23T11:19:55;589.30;2022.40
56123;DHT22;42426;46.104;19.656;2022-08-23T11:22:26;589.40;2048.00
56123;DHT22;42426;46.104;19.656;2022-08-23T11:24:57;589.40;2048.00
56123;DHT22;42426;46.104;19.656;2022-08-23T11:27:38;589.40;2073.60
56123;DHT22;42426;46.104;19.656;2022-08-23T11:33:07;589.40;1971.20
56123;DHT22;42426;46.104;19.656;2022-08-23T11:35:40;589.40;1996.80
56123;DHT22;42426;46.104;19.656;2022-08-23T11:38:08;589.40;1996.80
56123;DHT22;42426;46.104;19.656;2022-08-23T11:40:42;589.40;1996.80
56123;DHT22;42426;46.104;19.656;2022-08-23T11:43:32;589.50;2022.40
56123;DHT22;42426;46.104;19.656;2022-08-23T12:26:33;614.40;1971.20
56123;DHT22;42426;46.104;19.656;2022-08-23T12:29:29;589.70;1971.20
56123;DHT22;42426;46.104;19.656;2022-08-23T12:32:09;589.70;2022.40
56123;DHT22;42426;46.104;19.656;2022-08-23T12:37:32;589.70;1971.20
56123;DHT22;42426;46.104;19.656;2022-08-23T12:40:03;589.70;1945.60
56123;DHT22;42426;46.104;19.656;2022-08-23T12:42:37;589.70;1920.00
56123;DHT22;42426;46.104;19.656;2022-08-23T12:45:10;589.70;1920.00
56123;DHT22;42426;46.104;19.656;2022-08-23T12:47:36;589.70;1971.20
56123;DHT22;42426;46.104;19.656;2022-08-23T12:50:18;614.40;2022.40
56123;DHT22;42426;46.104;19.656;2022-08-23T12:52:58;589.70;1945.60
56123;DHT22;42426;46.104;19.656;2022-08-23T12:55:33;614.40;1894.40
56123;DHT22;42426;46.104;19.656;2022-08-23T12:57:59;614.40;1920.00
56123;DHT22;42426;46.104;19.656;2022-08-23T13:00:51;614.40;1971.20
56123;DHT22;42426;46.104;19.656;2022-08-23T13:06:19;614.50;1996.80
56123;DHT22;42426;46.104;19.656;2022-08-23T13:08:51;614.50;1945.60
56123;DHT22;42426;46.104;19.656;2022-08-23T13:11:21;614.50;1920.00
56123;DHT22;42426;46.104;19.656;2022-08-23T13:13:47;614.60;1945.60
56123;DHT22;42426;46.104;19.656;2022-08-23T13:18:50;614.50;1920.00
56123;DHT22;42426;46.104;19.656;2022-08-23T13:23:45;614.50;1971.20
56123;DHT22;42426;46.104;19.656;2022-08-23T13:29:22;614.40;1920.00
56123;DHT22;42426;46.104;19.656;2022-08-23T13:32:00;614.40;1920.00
56123;DHT22;42426;46.104;19.656;2022-08-23T13:36:58;614.40;1894.40
56123;DHT22;42426;46.104;19.656;2022-08-23T13:39:25;614.40;1945.60
56123;DHT22;42426;46.104;19.656;2022-08-23T13:41:51;614.40;1971.20
56123;DHT22;42426;46.104;19.656;2022-08-23T13:44:18;614.40;1894.40
56123;DHT22;42426;46.104;19.656;2022-08-23T13:46:46;614.40;1945.60
56123;DHT22;42426;46.104;19.656;2022-08-23T13:52:01;614.50;1945.60
56123;DHT22;42426;46.104;19.656;2022-08-23T13:54:29;614.50;1971.20
56123;DHT22;42426;46.104;19.656;2022-08-23T13:56:59;614.50;1920.00
56123;DHT22;42426;46.104;19.656;2022-08-23T13:59:30;614.50;1945.60
56123;DHT22;42426;46.104;19.656;2022-08-23T14:02:02;614.50;1920.00
56123;DHT22;42426;46.104;19.656;2022-08-23T14:04:28;614.50;1894.40
56123;DHT22;42426;46.104;19.656;2022-08-23T14:06:54;614.40;1894.40
56123;DHT22;42426;46.104;19.656;2022-08-23T14:09:20;614.50;1894.40
56123;DHT22;42426;46.104;19.656;2022-08-23T14:11:53;614.40;1920.00
56123;DHT22;42426;46.104;19.656;2022-08-23T14:14:19;614.40;1920.00
56123;DHT22;42426;46.104;19.656;2022-08-23T14:16:45;614.40;1868.80
56123;DHT22;42426;46.104;19.656;2022-08-23T14:19:11;614.40;1920.00
56123;DHT22;42426;46.104;19.656;2022-08-23T14:21:37;614.40;1894.40
56123;DHT22;42426;46.104;19.656;2022-08-23T14:24:03;614.40;1894.40
56123;DHT22;42426;46.104;19.656;2022-08-23T14:26:29;614.50;1920.00
56123;DHT22;42426;46.104;19.656;2022-08-23T14:28:54;614.50;1920.00
56123;DHT22;42426;46.104;19.656;2022-08-23T14:31:20;614.50;1894.40
56123;DHT22;42426;46.104;19.656;2022-08-23T14:33:47;614.50;1868.80
56123;DHT22;42426;46.104;19.656;2022-08-23T14:36:13;614.60;1894.40
56123;DHT22;42426;46.104;19.656;2022-08-23T14:38:39;615.00;1868.80
56123;DHT22;42426;46.104;19.656;2022-08-23T14:41:08;614.70;1868.80
56123;DHT22;42426;46.104;19.656;2022-08-23T14:43:35;614.70;1920.00
56123;DHT22;42426;46.104;19.656;2022-08-23T14:46:01;614.50;1868.80
56123;DHT22;42426;46.104;19.656;2022-08-23T14:48:27;614.80;1868.80
56123;DHT22;42426;46.104;19.656;2022-08-23T14:50:54;614.70;1868.80
56123;DHT22;42426;46.104;19.656;2022-08-23T14:53:23;614.70;1868.80
56123;DHT22;42426;46.104;19.656;2022-08-23T14:55:49;614.70;1894.40
56123;DHT22;42426;46.104;19.656;2022-08-23T14:58:22;614.70;1894.40
56123;DHT22;42426;46.104;19.656;2022-08-23T15:00:48;614.70;1894.40
56123;DHT22;42426;46.104;19.656;2022-08-23T15:03:26;614.60;1894.40
56123;DHT22;42426;46.104;19.656;2022-08-23T15:05:52;614.50;1920.00
56123;DHT22;42426;46.104;19.656;2022-08-23T15:08:19;614.50;1945.60
56123;DHT22;42426;46.104;19.656;2022-08-23T15:10:45;614.50;1920.00
56123;DHT22;42426;46.104;19.656;2022-08-23T15:13:11;614.50;1920.00
56123;DHT22;42426;46.104;19.656;2022-08-23T15:15:36;614.50;1945.60
56123;DHT22;42426;46.104;19.656;2022-08-23T15:18:06;614.40;1945.60
56123;DHT22;42426;46.104;19.656;2022-08-23T15:20:36;614.40;1945.60
56123;DHT22;42426;46.104;19.656;2022-08-23T15:23:07;614.40;1945.60
56123;DHT22;42426;46.104;19.656;2022-08-23T15:25:35;614.40;1945.60
56123;DHT22;42426;46.104;19.656;2022-08-23T15:28:02;614.40;1971.20
56123;DHT22;42426;46.104;19.656;2022-08-23T15:30:29;614.40;1971.20
56123;DHT22;42426;46.104;19.656;2022-08-23T15:32:54;614.40;1971.20
56123;DHT22;42426;46.104;19.656;2022-08-23T15:35:20;614.40;1996.80
56123;DHT22;42426;46.104;19.656;2022-08-23T15:37:46;589.70;1996.80
56123;DHT22;42426;46.104;19.656;2022-08-23T15:40:12;589.70;1996.80
56123;DHT22;42426;46.104;19.656;2022-08-23T15:42:38;589.70;1996.80
56123;DHT22;42426;46.104;19.656;2022-08-23T15:45:05;589.70;1996.80
56123;DHT22;42426;46.104;19.656;2022-08-23T15:47:35;589.70;1996.80
56123;DHT22;42426;46.104;19.656;2022-08-23T15:50:03;589.70;1996.80
56123;DHT22;42426;46.104;19.656;2022-08-23T15:52:29;589.70;1996.80
56123;DHT22;42426;46.104;19.656;2022-08-23T15:54:54;589.70;1996.80
56123;DHT22;42426;46.104;19.656;2022-08-23T15:57:23;589.70;1996.80
56123;DHT22;42426;46.104;19.656;2022-08-23T15:59:50;589.60;2022.40
56123;DHT22;42426;46.104;19.656;2022-08-23T16:02:16;589.60;2022.40
56123;DHT22;42426;46.104;19.656;2022-08-23T16:04:42;589.60;1996.80
56123;DHT22;42426;46.104;19.656;2022-08-23T16:07:09;589.60;2022.40
56123;DHT22;42426;46.104;19.656;2022-08-23T16:09:37;589.60;2022.40
56123;DHT22;42426;46.104;19.656;2022-08-23T16:12:04;589.60;2022.40
56123;DHT22;42426;46.104;19.656;2022-08-23T16:14:30;589.60;2022.40
56123;DHT22;42426;46.104;19.656;2022-08-23T16:16:57;589.60;2022.40
56123;DHT22;42426;46.104;19.656;2022-08-23T16:19:23;589.60;2022.40
56123;DHT22;42426;46.104;19.656;2022-08-23T16:21:50;589.60;2022.40
56123;DHT22;42426;46.104;19.656;2022-08-23T16:24:19;589.50;2048.00
56123;DHT22;42426;46.104;19.656;2022-08-23T16:26:45;589.60;2048.00
56123;DHT22;42426;46.104;19.656;2022-08-23T16:29:13;589.50;2022.40
56123;DHT22;42426;46.104;19.656;2022-08-23T16:31:42;589.50;2022.40
56123;DHT22;42426;46.104;19.656;2022-08-23T16:34:11;589.50;2022.40
56123;DHT22;42426;46.104;19.656;2022-08-23T16:36:40;589.50;2048.00
56123;DHT22;42426;46.104;19.656;2022-08-23T16:39:06;589.40;2048.00
56123;DHT22;42426;46.104;19.656;2022-08-23T16:41:32;589.40;2048.00
56123;DHT22;42426;46.104;19.656;2022-08-23T16:43:58;589.40;2048.00
56123;DHT22;42426;46.104;19.656;2022-08-23T16:46:25;589.40;2048.00